createdAt,value
2022-08-02T00:00:03.042Z,980.73
2022-08-02T00:01:03.798Z,980.62
2022-08-02T00:02:03.357Z,980.68
2022-08-02T00:03:03.235Z,980.68
2022-08-02T00:04:03.248Z,980.68
2022-08-02T00:05:03.215Z,980.68
2022-08-02T00:06:03.258Z,980.56
2022-08-02T00:07:03.324Z,980.56
2022-08-02T00:08:03.310Z,980.42
2022-08-02T00:09:03.358Z,980.62
2022-08-02T00:10:04.120Z,980.44
2022-08-02T00:11:03.283Z,980.56
2022-08-02T00:12:03.299Z,980.50
2022-08-02T00:13:03.338Z,980.68
2022-08-02T00:14:03.351Z,980.56
2022-08-02T00:15:03.410Z,980.62
2022-08-02T00:16:03.439Z,980.53
2022-08-02T00:17:03.448Z,980.56
2022-08-02T00:18:03.563Z,980.65
2022-08-02T00:19:03.454Z,980.62
2022-08-02T00:20:03.469Z,980.59
2022-08-02T00:21:03.725Z,980.54
2022-08-02T00:22:03.567Z,980.68
2022-08-02T00:23:03.563Z,980.62
2022-08-02T00:24:30.940Z,980.60
2022-08-02T00:25:03.698Z,980.60
2022-08-02T00:26:03.698Z,980.57
2022-08-02T00:27:09.293Z,980.51
2022-08-02T00:28:03.767Z,980.51
2022-08-02T00:29:03.682Z,980.57
2022-08-02T00:30:03.674Z,980.63
2022-08-02T00:31:03.779Z,980.48
2022-08-02T00:32:03.726Z,980.69
2022-08-02T00:33:03.336Z,980.66
2022-08-02T00:34:31.972Z,980.54
2022-08-02T00:35:03.411Z,980.49
2022-08-02T00:36:03.474Z,980.57
2022-08-02T00:37:02.932Z,980.60
2022-08-02T00:38:03.035Z,980.49
2022-08-02T00:39:03.176Z,980.46
2022-08-02T00:40:03.039Z,980.58
2022-08-02T00:41:03.073Z,980.64
2022-08-02T00:42:02.946Z,980.67
2022-08-02T00:43:03.872Z,980.38
2022-08-02T00:44:03.004Z,980.58
2022-08-02T00:45:03.022Z,980.52
2022-08-02T00:46:04.322Z,980.47
2022-08-02T00:47:03.131Z,980.53
2022-08-02T00:48:03.359Z,980.44
2022-08-02T00:49:03.533Z,980.56
2022-08-02T00:50:03.544Z,980.67
2022-08-02T00:51:03.658Z,980.39
2022-08-02T00:52:03.617Z,980.47
2022-08-02T00:53:03.568Z,980.53
2022-08-02T00:54:03.683Z,980.50
2022-08-02T00:55:03.829Z,980.65
2022-08-02T00:56:03.799Z,980.45
2022-08-02T00:57:03.928Z,980.48
2022-08-02T00:58:03.896Z,980.59
2022-08-02T00:59:03.913Z,980.39
2022-08-02T01:00:03.915Z,980.56
2022-08-02T01:01:04.151Z,980.54
2022-08-02T01:02:03.013Z,980.54
2022-08-02T01:03:03.070Z,980.48
2022-08-02T01:04:03.040Z,980.45
2022-08-02T01:05:03.206Z,980.51
2022-08-02T01:06:12.350Z,980.31
2022-08-02T01:07:13.878Z,980.31
2022-08-02T01:08:03.143Z,980.34
2022-08-02T01:09:03.242Z,980.43
2022-08-02T01:10:03.138Z,980.37
2022-08-02T01:11:03.312Z,980.26
2022-08-02T01:12:03.298Z,980.31
2022-08-02T01:13:03.452Z,980.37
2022-08-02T01:14:03.406Z,980.29
2022-08-02T01:15:03.492Z,980.29
2022-08-02T01:16:03.530Z,980.32
2022-08-02T01:17:03.628Z,980.29
2022-08-02T01:18:03.646Z,980.18
2022-08-02T01:19:04.777Z,980.35
2022-08-02T01:20:03.782Z,980.23
2022-08-02T01:21:03.864Z,980.38
2022-08-02T01:22:03.848Z,980.32
2022-08-02T01:23:03.993Z,980.32
2022-08-02T01:24:02.950Z,980.44
2022-08-02T01:25:02.977Z,980.38
2022-08-02T01:26:02.975Z,980.32
2022-08-02T01:27:03.885Z,980.29
2022-08-02T01:28:03.951Z,980.44
2022-08-02T01:29:03.934Z,980.35
2022-08-02T01:30:02.957Z,980.24
2022-08-02T01:31:03.037Z,980.24
2022-08-02T01:32:04.774Z,980.27
2022-08-02T01:33:03.357Z,980.24
2022-08-02T01:34:03.309Z,980.35
2022-08-02T01:35:03.309Z,980.21
2022-08-02T01:36:03.330Z,980.41
2022-08-02T01:37:03.299Z,980.30
2022-08-02T01:38:03.346Z,980.47
2022-08-02T01:39:03.344Z,980.39
2022-08-02T01:40:03.651Z,980.50
2022-08-02T01:41:03.686Z,980.33
2022-08-02T01:42:03.811Z,980.36
2022-08-02T01:43:05.053Z,980.27
2022-08-02T01:44:03.807Z,980.36
2022-08-02T01:45:03.032Z,980.30
2022-08-02T01:46:03.576Z,980.25
2022-08-02T01:47:03.678Z,980.17
2022-08-02T01:48:03.710Z,980.31
2022-08-02T01:49:09.442Z,980.36
2022-08-02T01:50:03.747Z,980.42
2022-08-02T01:51:03.847Z,980.37
2022-08-02T01:52:03.911Z,980.31
2022-08-02T01:53:03.928Z,980.37
2022-08-02T01:54:03.567Z,980.34
2022-08-02T01:55:03.131Z,980.18
2022-08-02T01:56:03.079Z,980.31
2022-08-02T01:57:03.056Z,980.34
2022-08-02T01:58:03.095Z,980.26
2022-08-02T01:59:03.080Z,980.31
2022-08-02T02:00:03.232Z,980.31
2022-08-02T02:01:03.439Z,980.37
2022-08-02T02:02:03.338Z,980.29
2022-08-02T02:03:03.439Z,980.32
2022-08-02T02:04:03.523Z,980.26
2022-08-02T02:05:03.636Z,980.32
2022-08-02T02:06:03.567Z,980.49
2022-08-02T02:07:03.539Z,980.38
2022-08-02T02:08:03.585Z,980.35
2022-08-02T02:09:03.486Z,980.38
2022-08-02T02:10:03.512Z,980.35
2022-08-02T02:12:13.973Z,980.35
2022-08-02T02:12:14.783Z,980.23
2022-08-02T02:13:03.576Z,980.32
2022-08-02T02:14:03.641Z,980.41
2022-08-02T02:15:03.756Z,980.32
2022-08-02T02:16:02.968Z,980.26
2022-08-02T02:17:03.022Z,980.27
2022-08-02T02:18:13.796Z,980.24
2022-08-02T02:19:03.124Z,980.32
2022-08-02T02:20:03.106Z,980.30
2022-08-02T02:21:03.168Z,980.33
2022-08-02T02:22:03.103Z,980.16
2022-08-02T02:23:04.400Z,980.05
2022-08-02T02:24:03.403Z,980.16
2022-08-02T02:25:06.787Z,980.16
2022-08-02T02:26:04.210Z,980.27
2022-08-02T02:27:03.283Z,980.36
2022-08-02T02:28:03.253Z,980.39
2022-08-02T02:29:03.333Z,980.36
2022-08-02T02:30:03.673Z,980.36
2022-08-02T02:31:03.657Z,980.24
2022-08-02T02:32:03.789Z,980.41
2022-08-02T02:33:03.733Z,980.30
2022-08-02T02:34:03.454Z,980.30
2022-08-02T02:35:03.538Z,980.30
2022-08-02T02:36:03.575Z,980.45
2022-08-02T02:37:03.575Z,980.27
2022-08-02T02:38:03.657Z,980.36
2022-08-02T02:39:03.581Z,980.30
2022-08-02T02:40:03.690Z,980.36
2022-08-02T02:41:03.887Z,980.36
2022-08-02T02:42:03.093Z,980.28
2022-08-02T02:43:03.117Z,980.36
2022-08-02T02:44:03.059Z,980.34
2022-08-02T02:45:03.196Z,980.40
2022-08-02T02:46:03.230Z,980.31
2022-08-02T02:47:03.070Z,980.40
2022-08-02T02:48:03.194Z,980.45
2022-08-02T02:49:03.241Z,980.34
2022-08-02T02:50:03.260Z,980.34
2022-08-02T02:51:03.242Z,980.18
2022-08-02T02:52:03.283Z,980.28
2022-08-02T02:53:03.221Z,980.28
2022-08-02T02:54:36.076Z,980.15
2022-08-02T02:55:03.176Z,980.28
2022-08-02T02:56:03.292Z,980.23
2022-08-02T02:57:02.937Z,980.26
2022-08-02T02:58:03.917Z,980.23
2022-08-02T02:59:02.913Z,980.29
2022-08-02T03:00:03.744Z,980.18
2022-08-02T03:01:03.796Z,980.37
2022-08-02T03:02:03.815Z,980.09
2022-08-02T03:03:03.940Z,980.09
2022-08-02T03:04:02.993Z,980.09
2022-08-02T03:05:03.035Z,980.15
2022-08-02T03:06:16.144Z,980.23
2022-08-02T03:07:03.691Z,980.15
2022-08-02T03:08:03.674Z,980.23
2022-08-02T03:09:03.777Z,980.26
2022-08-02T03:10:02.937Z,980.18
2022-08-02T03:11:05.610Z,980.12
2022-08-02T03:12:03.769Z,980.07
2022-08-02T03:13:03.764Z,980.26
2022-08-02T03:14:03.854Z,980.15
2022-08-02T03:15:03.804Z,980.18
2022-08-02T03:16:03.846Z,980.07
2022-08-02T03:17:02.959Z,980.04
2022-08-02T03:18:03.214Z,980.10
2022-08-02T03:19:02.956Z,979.98
2022-08-02T03:20:03.040Z,980.04
2022-08-02T03:21:03.453Z,980.04
2022-08-02T03:22:03.620Z,980.02
2022-08-02T03:23:03.516Z,980.07
2022-08-02T03:24:03.666Z,980.21
2022-08-02T03:25:03.568Z,980.13
2022-08-02T03:26:03.627Z,980.08
2022-08-02T03:27:03.619Z,980.21
2022-08-02T03:28:03.684Z,980.05
2022-08-02T03:29:11.282Z,980.16
2022-08-02T03:30:03.785Z,980.21
2022-08-02T03:31:03.801Z,980.11
2022-08-02T03:32:03.816Z,980.21
2022-08-02T03:33:03.966Z,980.17
2022-08-02T03:34:03.916Z,980.21
2022-08-02T03:35:03.023Z,980.22
2022-08-02T03:36:03.044Z,980.33
2022-08-02T03:37:03.097Z,980.33
2022-08-02T03:38:03.073Z,980.25
2022-08-02T03:39:03.116Z,980.30
2022-08-02T03:40:03.201Z,980.27
2022-08-02T03:41:03.258Z,980.22
2022-08-02T03:42:03.235Z,980.28
2022-08-02T03:43:03.336Z,980.22
2022-08-02T03:44:02.991Z,980.28
2022-08-02T03:45:09.075Z,980.42
2022-08-02T03:46:03.013Z,980.28
2022-08-02T03:47:02.975Z,980.22
2022-08-02T03:48:34.494Z,980.36
2022-08-02T03:49:03.193Z,980.39
2022-08-02T03:50:03.260Z,980.36
2022-08-02T03:51:03.653Z,980.25
2022-08-02T03:52:03.603Z,980.37
2022-08-02T03:53:03.697Z,980.40
2022-08-02T03:54:03.835Z,980.45
2022-08-02T03:55:03.952Z,980.45
2022-08-02T03:56:02.988Z,980.51
2022-08-02T03:57:04.423Z,980.57
2022-08-02T03:58:03.745Z,980.51
2022-08-02T03:59:03.899Z,980.51
2022-08-02T04:00:03.800Z,980.45
2022-08-02T04:01:04.121Z,980.45
2022-08-02T04:02:03.954Z,980.51
2022-08-02T04:03:02.925Z,980.43
2022-08-02T04:04:02.993Z,980.57
2022-08-02T04:05:03.144Z,980.54
2022-08-02T04:06:05.107Z,980.48
2022-08-02T04:07:07.914Z,980.51
2022-08-02T04:08:38.263Z,980.54
2022-08-02T04:09:03.258Z,980.57
2022-08-02T04:10:03.302Z,980.43
2022-08-02T04:11:03.403Z,980.46
2022-08-02T04:12:03.854Z,980.49
2022-08-02T04:13:03.233Z,980.43
2022-08-02T04:14:03.322Z,980.49
2022-08-02T04:15:03.354Z,980.43
2022-08-02T04:16:03.319Z,980.40
2022-08-02T04:17:03.314Z,980.49
2022-08-02T04:18:03.338Z,980.37
2022-08-02T04:19:03.388Z,980.58
2022-08-02T04:20:03.353Z,980.49
2022-08-02T04:21:03.389Z,980.46
2022-08-02T04:22:03.419Z,980.60
2022-08-02T04:23:03.386Z,980.63
2022-08-02T04:24:04.703Z,980.43
2022-08-02T04:25:04.359Z,980.46
2022-08-02T04:26:04.772Z,980.57
2022-08-02T04:27:50.249Z,980.31
2022-08-02T04:28:18.649Z,980.54
2022-08-02T04:29:03.619Z,980.42
2022-08-02T04:30:03.274Z,980.39
2022-08-02T04:31:03.297Z,980.39
2022-08-02T04:32:03.394Z,980.48
2022-08-02T04:33:03.494Z,980.45
2022-08-02T04:34:03.549Z,980.36
2022-08-02T04:35:20.921Z,980.47
2022-08-02T04:36:03.729Z,980.44
2022-08-02T04:37:03.775Z,980.38
2022-08-02T04:38:10.555Z,980.41
2022-08-02T04:39:03.700Z,980.37
2022-08-02T04:40:03.765Z,980.37
2022-08-02T04:41:03.815Z,980.40
2022-08-02T04:42:03.869Z,980.30
2022-08-02T04:43:03.818Z,980.47
2022-08-02T04:44:02.921Z,980.23
2022-08-02T04:45:02.990Z,980.34
2022-08-02T04:46:03.010Z,980.42
2022-08-02T04:47:07.236Z,980.50
2022-08-02T04:48:06.332Z,980.38
2022-08-02T04:49:05.339Z,980.43
2022-08-02T04:50:03.204Z,980.48
2022-08-02T04:51:03.229Z,980.53
2022-08-02T04:52:03.168Z,980.47
2022-08-02T04:53:03.118Z,980.46
2022-08-02T04:54:10.457Z,980.60
2022-08-02T04:55:03.259Z,980.48
2022-08-02T04:56:03.267Z,980.55
2022-08-02T04:57:03.308Z,980.61
2022-08-02T04:58:37.235Z,980.54
2022-08-02T04:59:03.342Z,980.62
2022-08-02T05:00:03.307Z,980.70
2022-08-02T05:01:03.660Z,980.67
2022-08-02T05:02:03.344Z,980.63
2022-08-02T05:03:03.438Z,980.89
2022-08-02T05:04:03.309Z,980.85
2022-08-02T05:05:10.243Z,980.91
2022-08-02T05:06:03.343Z,981.02
2022-08-02T05:07:03.428Z,980.98
2022-08-02T05:08:03.476Z,981.09
2022-08-02T05:09:03.585Z,981.12
2022-08-02T05:10:04.213Z,981.32
2022-08-02T05:11:03.728Z,981.11
2022-08-02T05:12:04.473Z,981.19
2022-08-02T05:13:03.830Z,981.33
2022-08-02T05:14:03.830Z,981.24
2022-08-02T05:15:03.834Z,981.15
2022-08-02T05:16:03.016Z,981.32
2022-08-02T05:17:03.295Z,981.29
2022-08-02T05:18:03.257Z,981.44
2022-08-02T05:19:03.617Z,981.46
2022-08-02T05:20:03.165Z,981.46
2022-08-02T05:21:03.318Z,981.54
2022-08-02T05:22:03.355Z,981.45
2022-08-02T05:23:03.305Z,981.48
2022-08-02T05:24:03.353Z,981.61
2022-08-02T05:25:03.525Z,981.57
2022-08-02T05:26:04.084Z,981.66
2022-08-02T05:27:21.707Z,981.71
2022-08-02T05:28:11.377Z,981.65
2022-08-02T05:29:03.719Z,981.76
2022-08-02T05:30:03.111Z,981.70
2022-08-02T05:31:03.097Z,981.82
2022-08-02T05:32:03.305Z,981.73
2022-08-02T05:33:03.709Z,981.84
2022-08-02T05:34:05.084Z,981.87
2022-08-02T05:35:03.885Z,981.93
2022-08-02T05:36:03.061Z,981.84
2022-08-02T05:37:10.237Z,981.75
2022-08-02T05:38:04.106Z,981.87
2022-08-02T05:39:05.707Z,981.98
2022-08-02T05:40:02.964Z,981.92
2022-08-02T05:41:03.794Z,981.98
2022-08-02T05:42:03.110Z,982.12
2022-08-02T05:43:03.053Z,982.06
2022-08-02T05:44:03.093Z,982.15
2022-08-02T05:45:03.096Z,982.11
2022-08-02T05:46:03.115Z,982.05
2022-08-02T05:47:03.116Z,982.14
2022-08-02T05:48:04.374Z,982.19
2022-08-02T05:49:03.880Z,982.28
2022-08-02T05:50:03.787Z,982.25
2022-08-02T05:51:03.682Z,982.21
2022-08-02T05:52:03.876Z,982.15
2022-08-02T05:53:03.884Z,982.27
2022-08-02T05:54:03.945Z,982.32
2022-08-02T05:55:03.854Z,982.26
2022-08-02T05:56:08.899Z,982.41
2022-08-02T05:57:02.973Z,982.35
2022-08-02T05:58:02.946Z,982.29
2022-08-02T05:59:03.046Z,982.46
2022-08-02T06:00:03.643Z,982.55
2022-08-02T06:01:03.153Z,982.43
2022-08-02T06:02:03.305Z,982.49
2022-08-02T06:03:03.233Z,982.43
2022-08-02T06:04:03.169Z,982.52
2022-08-02T06:05:03.750Z,982.55
2022-08-02T06:06:03.273Z,982.52
2022-08-02T06:07:03.277Z,982.58
2022-08-02T06:08:07.918Z,982.61
2022-08-02T06:09:03.369Z,982.67
2022-08-02T06:10:03.433Z,982.61
2022-08-02T06:11:03.476Z,982.67
2022-08-02T06:12:03.699Z,982.73
2022-08-02T06:13:03.661Z,982.67
2022-08-02T06:14:03.528Z,982.70
2022-08-02T06:15:03.685Z,982.61
2022-08-02T06:16:03.885Z,982.81
2022-08-02T06:17:04.145Z,982.70
2022-08-02T06:18:03.865Z,982.78
2022-08-02T06:19:03.881Z,982.73
2022-08-02T06:20:03.948Z,982.70
2022-08-02T06:22:36.863Z,982.78
2022-08-02T06:22:42.739Z,982.73
2022-08-02T06:23:03.633Z,982.83
2022-08-02T06:24:03.809Z,982.72
2022-08-02T06:25:03.837Z,982.75
2022-08-02T06:26:02.961Z,982.64
2022-08-02T06:27:03.534Z,982.75
2022-08-02T06:28:03.892Z,982.63
2022-08-02T06:29:03.504Z,982.75
2022-08-02T06:30:03.515Z,982.72
2022-08-02T06:31:03.483Z,982.92
2022-08-02T06:32:03.673Z,982.72
2022-08-02T06:33:03.769Z,982.83
2022-08-02T06:34:03.871Z,982.66
2022-08-02T06:35:03.913Z,982.55
2022-08-02T06:36:03.681Z,982.61
2022-08-02T06:37:03.794Z,982.58
2022-08-02T06:38:02.945Z,982.64
2022-08-02T06:39:03.019Z,982.70
2022-08-02T06:40:03.064Z,982.61
2022-08-02T06:41:03.147Z,982.70
2022-08-02T06:42:03.056Z,982.61
2022-08-02T06:43:03.036Z,982.61
2022-08-02T06:44:46.766Z,982.58
2022-08-02T06:45:03.845Z,982.64
2022-08-02T06:47:12.679Z,982.58
2022-08-02T06:47:13.452Z,982.63
2022-08-02T06:48:03.766Z,982.49
2022-08-02T06:49:03.908Z,982.54
2022-08-02T06:50:03.918Z,982.72
2022-08-02T06:51:03.939Z,982.48
2022-08-02T06:52:02.983Z,982.60
2022-08-02T06:53:03.021Z,982.63
2022-08-02T06:54:03.027Z,982.54
2022-08-02T06:55:03.073Z,982.48
2022-08-02T06:56:07.519Z,982.57
2022-08-02T06:57:02.995Z,982.54
2022-08-02T06:58:02.939Z,982.53
2022-08-02T06:59:06.414Z,982.50
2022-08-02T07:00:03.057Z,982.44
2022-08-02T07:01:03.087Z,982.50
2022-08-02T07:02:03.240Z,982.47
2022-08-02T07:03:03.188Z,982.47
2022-08-02T07:04:03.285Z,982.50
2022-08-02T07:05:03.290Z,982.62
2022-08-02T07:06:03.344Z,982.59
2022-08-02T07:07:03.392Z,982.47
2022-08-02T07:08:03.431Z,982.62
2022-08-02T07:09:21.741Z,982.53
2022-08-02T07:10:03.485Z,982.59
2022-08-02T07:11:03.397Z,982.56
2022-08-02T07:12:03.465Z,982.67
2022-08-02T07:13:03.596Z,982.67
2022-08-02T07:14:03.548Z,982.73
2022-08-02T07:15:03.627Z,982.64
2022-08-02T07:16:03.727Z,982.58
2022-08-02T07:17:03.772Z,982.61
2022-08-02T07:18:03.809Z,982.55
2022-08-02T07:19:02.960Z,982.55
2022-08-02T07:20:03.034Z,982.66
2022-08-02T07:21:03.762Z,982.54
2022-08-02T07:22:03.524Z,982.54
2022-08-02T07:23:03.661Z,982.60
2022-08-02T07:24:03.742Z,982.57
2022-08-02T07:25:03.780Z,982.60
2022-08-02T07:26:06.153Z,982.45
2022-08-02T07:27:13.081Z,982.45
2022-08-02T07:28:03.529Z,982.53
2022-08-02T07:29:03.567Z,982.50
2022-08-02T07:30:03.685Z,982.50
2022-08-02T07:31:03.825Z,982.50
2022-08-02T07:32:02.999Z,982.53
2022-08-02T07:33:02.946Z,982.56
2022-08-02T07:34:02.948Z,982.44
2022-08-02T07:35:07.820Z,982.49
2022-08-02T07:36:05.748Z,982.43
2022-08-02T07:37:03.256Z,982.55
2022-08-02T07:38:04.863Z,982.46
2022-08-02T07:39:03.443Z,982.40
2022-08-02T07:40:10.349Z,982.55
2022-08-02T07:41:04.304Z,982.52
2022-08-02T07:42:04.271Z,982.60
2022-08-02T07:43:04.805Z,982.58
2022-08-02T07:44:03.610Z,982.55
2022-08-02T07:45:03.612Z,982.55
2022-08-02T07:46:03.599Z,982.55
2022-08-02T07:47:03.707Z,982.49
2022-08-02T07:48:03.722Z,982.40
2022-08-02T07:49:03.829Z,982.43
2022-08-02T07:50:03.752Z,982.43
2022-08-02T07:51:03.806Z,982.46
2022-08-02T07:52:03.793Z,982.49
2022-08-02T07:53:03.848Z,982.40
2022-08-02T07:54:05.261Z,982.40
2022-08-02T07:55:03.005Z,982.40
2022-08-02T07:56:03.105Z,982.51
2022-08-02T07:57:03.258Z,982.34
2022-08-02T07:58:03.142Z,982.51
2022-08-02T07:59:03.141Z,982.60
2022-08-02T08:00:03.196Z,982.42
2022-08-02T08:01:03.306Z,982.51
2022-08-02T08:02:03.422Z,982.39
2022-08-02T08:03:03.288Z,982.51
2022-08-02T08:04:04.342Z,982.45
2022-08-02T08:05:03.312Z,982.60
2022-08-02T08:06:03.303Z,982.45
2022-08-02T08:07:03.335Z,982.45
2022-08-02T08:08:03.246Z,982.39
2022-08-02T08:09:03.256Z,982.33
2022-08-02T08:10:03.267Z,982.24
2022-08-02T08:11:03.168Z,982.21
2022-08-02T08:12:03.188Z,982.33
2022-08-02T08:13:03.199Z,982.27
2022-08-02T08:14:03.313Z,982.30
2022-08-02T08:15:03.378Z,982.35
2022-08-02T08:16:03.269Z,982.41
2022-08-02T08:17:03.401Z,982.32
2022-08-02T08:18:03.426Z,982.35
2022-08-02T08:19:03.487Z,982.38
2022-08-02T08:20:03.552Z,982.18
2022-08-02T08:21:04.558Z,982.38
2022-08-02T08:22:03.572Z,982.38
2022-08-02T08:23:03.639Z,982.44
2022-08-02T08:24:03.729Z,982.35
2022-08-02T08:25:04.478Z,982.29
2022-08-02T08:26:03.801Z,982.32
2022-08-02T08:27:07.170Z,982.27
2022-08-02T08:28:03.833Z,982.12
2022-08-02T08:29:03.838Z,982.18
2022-08-02T08:30:03.795Z,982.27
2022-08-02T08:31:03.833Z,982.30
2022-08-02T08:32:03.851Z,982.15
2022-08-02T08:33:03.755Z,982.21
2022-08-02T08:34:03.781Z,982.29
2022-08-02T08:35:03.692Z,982.23
2022-08-02T08:36:03.839Z,982.35
2022-08-02T08:37:03.857Z,982.20
2022-08-02T08:38:08.044Z,982.14
2022-08-02T08:39:03.025Z,982.14
2022-08-02T08:40:02.902Z,982.17
2022-08-02T08:41:02.992Z,982.26
2022-08-02T08:42:03.112Z,982.17
2022-08-02T08:43:03.114Z,982.31
2022-08-02T08:44:03.179Z,982.19
2022-08-02T08:45:04.063Z,982.25
2022-08-02T08:46:03.238Z,982.28
2022-08-02T08:47:04.914Z,982.16
2022-08-02T08:48:03.362Z,982.22
2022-08-02T08:49:03.579Z,982.22
2022-08-02T08:50:03.551Z,982.34
2022-08-02T08:51:03.622Z,982.22
2022-08-02T08:52:03.643Z,982.07
2022-08-02T08:53:03.828Z,982.24
2022-08-02T08:54:03.140Z,982.10
2022-08-02T08:55:03.109Z,982.16
2022-08-02T08:56:03.205Z,982.12
2022-08-02T08:57:03.260Z,982.24
2022-08-02T08:58:03.304Z,982.18
2022-08-02T08:59:03.495Z,982.18
2022-08-02T09:00:03.487Z,982.21
2022-08-02T09:01:03.456Z,982.24
2022-08-02T09:02:22.656Z,982.30
2022-08-02T09:03:03.497Z,982.26
2022-08-02T09:04:03.496Z,982.35
2022-08-02T09:05:03.591Z,982.17
2022-08-02T09:06:05.388Z,982.23
2022-08-02T09:07:03.532Z,982.26
2022-08-02T09:08:03.604Z,982.32
2022-08-02T09:09:03.578Z,982.29
2022-08-02T09:10:03.748Z,982.24
2022-08-02T09:11:03.725Z,982.18
2022-08-02T09:12:03.815Z,982.24
2022-08-02T09:13:45.428Z,982.15
2022-08-02T09:14:02.964Z,982.23
2022-08-02T09:15:02.918Z,982.14
2022-08-02T09:16:14.011Z,982.11
2022-08-02T09:17:03.228Z,982.11
2022-08-02T09:18:04.095Z,982.17
2022-08-02T09:19:08.112Z,982.16
2022-08-02T09:20:03.246Z,982.08
2022-08-02T09:21:06.673Z,982.04
2022-08-02T09:22:03.183Z,982.07
2022-08-02T09:23:02.976Z,982.01
2022-08-02T09:24:03.072Z,982.04
2022-08-02T09:25:03.270Z,982.04
2022-08-02T09:26:07.924Z,981.86
2022-08-02T09:27:03.818Z,981.86
2022-08-02T09:28:03.268Z,981.89
2022-08-02T09:29:03.345Z,982.10
2022-08-02T09:30:13.496Z,981.95
2022-08-02T09:31:03.452Z,982.01
2022-08-02T09:32:03.471Z,982.01
2022-08-02T09:33:06.026Z,981.97
2022-08-02T09:34:03.564Z,982.03
2022-08-02T09:35:03.518Z,982.00
2022-08-02T09:36:08.493Z,982.00
2022-08-02T09:37:03.602Z,981.97
2022-08-02T09:38:03.731Z,982.06
2022-08-02T09:39:03.623Z,982.08
2022-08-02T09:40:03.766Z,981.99
2022-08-02T09:41:03.714Z,981.90
2022-08-02T09:42:03.719Z,981.90
2022-08-02T09:43:03.778Z,981.93
2022-08-02T09:44:07.154Z,981.96
2022-08-02T09:45:03.864Z,981.99
2022-08-02T09:46:03.772Z,981.96
2022-08-02T09:47:03.949Z,981.98
2022-08-02T09:48:03.973Z,981.80
2022-08-02T09:49:03.228Z,982.01
2022-08-02T09:50:03.938Z,981.98
2022-08-02T09:51:03.126Z,982.03
2022-08-02T09:52:03.120Z,981.91
2022-08-02T09:53:03.795Z,982.09
2022-08-02T09:54:09.619Z,982.00
2022-08-02T09:55:03.937Z,981.85
2022-08-02T09:56:03.893Z,981.94
2022-08-02T09:57:03.856Z,981.91
2022-08-02T09:58:03.958Z,981.93
2022-08-02T09:59:03.908Z,981.99
2022-08-02T10:00:03.041Z,981.90
2022-08-02T10:01:03.182Z,981.93
2022-08-02T10:02:04.807Z,981.87
2022-08-02T10:03:04.022Z,981.87
2022-08-02T10:04:04.958Z,982.05
2022-08-02T10:05:03.033Z,982.05
2022-08-02T10:06:03.757Z,982.08
2022-08-02T10:07:03.311Z,982.05
2022-08-02T10:08:03.270Z,982.23
2022-08-02T10:09:03.314Z,982.11
2022-08-02T10:10:03.665Z,982.17
2022-08-02T10:11:04.035Z,982.06
2022-08-02T10:12:05.224Z,982.05
2022-08-02T10:13:03.749Z,982.17
2022-08-02T10:14:03.838Z,982.17
2022-08-02T10:15:02.921Z,982.14
2022-08-02T10:16:02.958Z,981.99
2022-08-02T10:17:03.195Z,982.17
2022-08-02T10:18:38.022Z,982.23
2022-08-02T10:19:03.260Z,982.11
2022-08-02T10:20:05.491Z,982.11
2022-08-02T10:21:03.309Z,982.11
2022-08-02T10:22:03.340Z,982.08
2022-08-02T10:23:03.401Z,982.10
2022-08-02T10:24:03.406Z,982.10
2022-08-02T10:25:03.396Z,982.25
2022-08-02T10:26:03.461Z,982.19
2022-08-02T10:27:03.445Z,982.07
2022-08-02T10:28:06.089Z,982.04
2022-08-02T10:29:03.392Z,982.10
2022-08-02T10:30:03.437Z,982.07
2022-08-02T10:31:05.197Z,982.09
2022-08-02T10:32:03.479Z,982.12
2022-08-02T10:33:03.456Z,982.06
2022-08-02T10:34:03.616Z,982.06
2022-08-02T10:35:25.091Z,982.21
2022-08-02T10:36:08.030Z,981.94
2022-08-02T10:37:02.961Z,982.06
2022-08-02T10:38:02.963Z,982.09
2022-08-02T10:39:02.965Z,982.09
2022-08-02T10:40:03.008Z,982.03
2022-08-02T10:41:03.131Z,982.06
2022-08-02T10:42:03.095Z,981.99
2022-08-02T10:43:03.103Z,981.93
2022-08-02T10:44:03.099Z,981.99
2022-08-02T10:45:03.235Z,981.96
2022-08-02T10:46:03.225Z,982.05
2022-08-02T10:47:03.282Z,982.05
2022-08-02T10:48:03.265Z,982.05
2022-08-02T10:49:39.480Z,981.96
2022-08-02T10:50:03.471Z,982.07
2022-08-02T10:51:03.379Z,981.98
2022-08-02T10:52:03.421Z,982.01
2022-08-02T10:53:03.407Z,981.86
2022-08-02T10:54:03.528Z,982.01
2022-08-02T10:55:13.287Z,981.98
2022-08-02T10:56:03.726Z,981.93
2022-08-02T10:57:03.804Z,982.02
2022-08-02T10:58:03.718Z,982.02
2022-08-02T10:59:03.778Z,981.93
2022-08-02T11:00:03.828Z,981.99
2022-08-02T11:01:03.954Z,981.93
2022-08-02T11:02:03.041Z,981.96
2022-08-02T11:03:03.033Z,981.87
2022-08-02T11:04:10.665Z,981.93
2022-08-02T11:05:03.288Z,981.90
2022-08-02T11:06:03.435Z,981.90
2022-08-02T11:07:03.517Z,981.78
2022-08-02T11:08:03.520Z,981.69
2022-08-02T11:09:04.770Z,981.84
2022-08-02T11:10:03.587Z,981.81
2022-08-02T11:11:03.473Z,981.92
2022-08-02T11:12:03.675Z,981.86
2022-08-02T11:13:03.682Z,981.80
2022-08-02T11:14:03.728Z,981.74
2022-08-02T11:15:08.089Z,981.71
2022-08-02T11:16:11.919Z,981.77
2022-08-02T11:17:03.769Z,981.77
2022-08-02T11:18:03.832Z,981.74
2022-08-02T11:19:07.317Z,981.73
2022-08-02T11:20:02.945Z,981.76
2022-08-02T11:21:02.979Z,981.88
2022-08-02T11:22:03.079Z,981.76
2022-08-02T11:23:03.086Z,981.79
2022-08-02T11:24:03.281Z,981.67
2022-08-02T11:25:03.358Z,981.70
2022-08-02T11:26:11.554Z,981.64
2022-08-02T11:27:03.585Z,981.76
2022-08-02T11:28:03.608Z,981.73
2022-08-02T11:29:03.825Z,981.79
2022-08-02T11:30:03.771Z,981.76
2022-08-02T11:31:03.445Z,981.79
2022-08-02T11:32:02.924Z,981.73
2022-08-02T11:33:03.327Z,981.64
2022-08-02T11:34:09.681Z,981.91
2022-08-02T11:35:03.166Z,981.79
2022-08-02T11:36:03.127Z,981.70
2022-08-02T11:37:03.296Z,981.79
2022-08-02T11:38:03.843Z,981.73
2022-08-02T11:39:03.410Z,981.70
2022-08-02T11:40:03.416Z,981.70
2022-08-02T11:41:10.466Z,981.64
2022-08-02T11:42:03.502Z,981.56
2022-08-02T11:43:03.486Z,981.61
2022-08-02T11:44:03.517Z,981.69
2022-08-02T11:45:03.672Z,981.66
2022-08-02T11:46:03.715Z,981.57
2022-08-02T11:47:03.733Z,981.69
2022-08-02T11:48:04.326Z,981.63
2022-08-02T11:49:08.738Z,981.52
2022-08-02T11:50:03.861Z,981.66
2022-08-02T11:51:03.808Z,981.72
2022-08-02T11:52:03.853Z,981.63
2022-08-02T11:53:02.950Z,981.60
2022-08-02T11:54:03.095Z,981.63
2022-08-02T11:55:03.055Z,981.60
2022-08-02T11:56:03.634Z,981.55
2022-08-02T11:57:03.650Z,981.57
2022-08-02T11:58:06.362Z,981.66
2022-08-02T11:59:03.859Z,981.58
2022-08-02T12:00:03.869Z,981.61
2022-08-02T12:01:03.875Z,981.67
2022-08-02T12:02:02.974Z,981.64
2022-08-02T12:03:03.797Z,981.50
2022-08-02T12:04:03.734Z,981.56
2022-08-02T12:05:04.487Z,981.56
2022-08-02T12:06:16.959Z,981.61
2022-08-02T12:07:04.120Z,981.50
2022-08-02T12:08:03.909Z,981.38
2022-08-02T12:09:03.319Z,981.61
2022-08-02T12:10:03.018Z,981.58
2022-08-02T12:11:03.190Z,981.58
2022-08-02T12:12:03.212Z,981.47
2022-08-02T12:13:03.248Z,981.53
2022-08-02T12:14:03.307Z,981.56
2022-08-02T12:15:03.405Z,981.50
2022-08-02T12:16:08.946Z,981.53
2022-08-02T12:17:03.727Z,981.50
2022-08-02T12:18:03.699Z,981.50
2022-08-02T12:19:03.787Z,981.52
2022-08-02T12:20:03.884Z,981.56
2022-08-02T12:21:02.916Z,981.47
2022-08-02T12:22:03.005Z,981.58
2022-08-02T12:23:02.889Z,981.58
2022-08-02T12:24:02.949Z,981.50
2022-08-02T12:25:02.996Z,981.44
2022-08-02T12:26:03.007Z,981.41
2022-08-02T12:27:02.997Z,981.63
2022-08-02T12:28:02.964Z,981.46